Time,TemperatureF,DewpointF,PressureIn,WindDirection,WindDirectionDegrees,WindSpeedMPH,WindSpeedGustMPH,Humidity,HourlyPrecipIn,Conditions,Clouds,dailyrainin,SoftwareType,DateUTC
2013-03-19 00:03:00,30.7,21.4,30.00,NW,315,3.7,-999.0,68,-99.99,,,0.00,Acu-Link.com,2013-03-19 05:03:00,
2013-03-19 00:18:00,30.6,21.3,30.00,NW,315,3.2,-999.0,68,-99.99,,,0.00,Acu-Link.com,2013-03-19 05:18:00,
2013-03-19 00:33:00,30.6,21.7,30.01,NW,315,4.7,-999.0,69,-99.99,,,0.00,Acu-Link.com,2013-03-19 05:33:00,
2013-03-19 00:48:00,30.2,21.3,30.01,WNW,292,6.8,-999.0,69,-99.99,,,0.00,Acu-Link.com,2013-03-19 05:48:00,
2013-03-19 01:03:00,30.4,21.1,30.00,NW,315,5.8,-999.0,68,-99.99,,,0.00,Acu-Link.com,2013-03-19 06:03:00,
2013-03-19 01:19:00,30.2,21.6,30.00,NW,315,0.0,-999.0,70,-99.99,,,0.00,Acu-Link.com,2013-03-19 06:19:00,
2013-03-19 01:34:00,30.0,21.4,30.00,NW,315,4.2,-999.0,70,-99.99,,,0.00,Acu-Link.com,2013-03-19 06:34:00,
2013-03-19 01:49:00,29.7,21.5,30.01,NNW,337,2.7,-999.0,71,-99.99,,,0.00,Acu-Link.com,2013-03-19 06:49:00,
2013-03-19 02:04:00,29.8,21.6,30.01,NW,315,3.2,-999.0,71,-99.99,,,0.00,Acu-Link.com,2013-03-19 07:04:00,
2013-03-19 02:19:00,29.7,21.8,30.01,WNW,292,2.7,-999.0,72,-99.99,,,0.00,Acu-Link.com,2013-03-19 07:19:00,
2013-03-19 02:35:00,29.3,22.1,30.02,West,270,2.2,-999.0,74,-99.99,,,0.00,Acu-Link.com,2013-03-19 07:35:00,
2013-03-19 02:50:00,29.1,22.2,30.04,NW,315,1.7,-999.0,75,-99.99,,,0.00,Acu-Link.com,2013-03-19 07:50:00,
2013-03-19 03:05:00,28.9,22.0,30.03,NW,315,2.2,-999.0,75,-99.99,,,0.00,Acu-Link.com,2013-03-19 08:05:00,
2013-03-19 03:20:00,28.9,22.3,30.03,WNW,292,2.7,-999.0,76,-99.99,,,0.00,Acu-Link.com,2013-03-19 08:20:00,
2013-03-19 03:36:00,28.6,22.3,30.03,WNW,292,2.2,-999.0,77,-99.99,,,0.00,Acu-Link.com,2013-03-19 08:36:00,
2013-03-19 03:51:00,28.4,22.4,30.03,WNW,292,2.7,-999.0,78,-99.99,,,0.00,Acu-Link.com,2013-03-19 08:51:00,
2013-03-19 04:36:00,28.2,22.2,30.04,West,270,2.7,-999.0,78,-99.99,,,0.00,Acu-Link.com,2013-03-19 09:36:00,
2013-03-19 04:51:00,28.2,22.5,30.03,WNW,292,0.0,-999.0,79,-99.99,,,0.00,Acu-Link.com,2013-03-19 09:51:00,
2013-03-19 05:07:00,27.9,22.2,30.03,NNW,337,2.2,-999.0,79,-99.99,,,0.00,Acu-Link.com,2013-03-19 10:07:00,
2013-03-19 05:22:00,27.7,21.1,30.03,WNW,292,3.7,-999.0,76,-99.99,,,0.00,Acu-Link.com,2013-03-19 10:22:00,
2013-03-19 05:37:00,27.9,21.6,30.04,WNW,292,2.7,-999.0,77,-99.99,,,0.00,Acu-Link.com,2013-03-19 10:37:00,
2013-03-19 05:52:00,27.9,21.6,30.05,WNW,292,2.7,-999.0,77,-99.99,,,0.00,Acu-Link.com,2013-03-19 10:52:00,
2013-03-19 06:07:00,27.5,21.9,30.05,WNW,292,3.2,-999.0,79,-99.99,,,0.00,Acu-Link.com,2013-03-19 11:07:00,
2013-03-19 06:23:00,27.3,21.7,30.06,NW,315,1.7,-999.0,79,-99.99,,,0.00,Acu-Link.com,2013-03-19 11:23:00,
2013-03-19 06:38:00,27.0,21.7,30.06,WNW,292,2.7,-999.0,80,-99.99,,,0.00,Acu-Link.com,2013-03-19 11:38:00,
2013-03-19 06:53:00,26.8,21.5,30.06,WNW,292,2.7,-999.0,80,-99.99,,,0.00,Acu-Link.com,2013-03-19 11:53:00,
2013-03-19 07:08:00,26.6,21.6,30.07,WNW,292,2.7,-999.0,81,-99.99,,,0.00,Acu-Link.com,2013-03-19 12:08:00,
2013-03-19 07:24:00,26.2,21.5,30.07,NNW,337,3.7,-999.0,82,-99.99,,,0.00,Acu-Link.com,2013-03-19 12:24:00,
2013-03-19 07:39:00,26.2,21.8,30.07,NNW,337,1.7,-999.0,83,-99.99,,,0.00,Acu-Link.com,2013-03-19 12:39:00,
2013-03-19 07:54:00,26.1,22.2,30.08,NNW,337,2.7,-999.0,85,-99.99,,,0.00,Acu-Link.com,2013-03-19 12:54:00,
2013-03-19 08:09:00,25.9,25.4,30.07,ENE,67,4.7,-999.0,98,-99.99,,,0.00,Acu-Link.com,2013-03-19 13:09:00,
2013-03-19 08:24:00,25.7,25.2,30.08,NNE,22,2.2,-999.0,98,-99.99,,,0.00,Acu-Link.com,2013-03-19 13:24:00,
2013-03-19 08:40:00,26.8,26.3,30.08,NE,45,4.7,-999.0,98,-99.99,,,0.00,Acu-Link.com,2013-03-19 13:40:00,
2013-03-19 08:55:00,29.1,26.5,30.07,NE,45,4.7,-999.0,90,-99.99,,,0.00,Acu-Link.com,2013-03-19 13:55:00,
2013-03-19 09:10:00,31.5,27.5,30.05,NE,45,3.7,-999.0,85,-99.99,,,0.00,Acu-Link.com,2013-03-19 14:10:00,
2013-03-19 09:25:00,33.1,27.9,30.04,ENE,67,5.3,-999.0,81,-99.99,,,0.00,Acu-Link.com,2013-03-19 14:25:00,
2013-03-19 09:40:00,31.3,26.5,30.04,NE,45,2.7,-999.0,82,-99.99,,,0.00,Acu-Link.com,2013-03-19 14:40:00,
2013-03-19 09:56:00,30.2,26.2,30.09,ESE,112,4.2,-999.0,85,-99.99,,,0.00,Acu-Link.com,2013-03-19 14:56:00,
2013-03-19 10:41:00,32.7,26.3,30.11,ENE,67,3.7,-999.0,77,-99.99,,,0.00,Acu-Link.com,2013-03-19 15:41:00,
2013-03-19 10:57:00,33.8,27.1,30.11,ENE,67,3.2,-999.0,76,-99.99,,,0.00,Acu-Link.com,2013-03-19 15:57:00,
2013-03-19 11:12:00,34.7,27.9,30.12,SSE,157,2.7,-999.0,76,-99.99,,,0.00,Acu-Link.com,2013-03-19 16:12:00,
2013-03-19 11:27:00,34.7,27.9,30.12,NNE,22,3.2,-999.0,76,-99.99,,,0.00,Acu-Link.com,2013-03-19 16:27:00,
2013-03-19 11:42:00,35.2,28.4,30.12,ENE,67,4.7,-999.0,76,-99.99,,,0.00,Acu-Link.com,2013-03-19 16:42:00,
2013-03-19 11:57:00,36.9,28.7,30.12,ENE,67,4.7,-999.0,72,-99.99,,,0.00,Acu-Link.com,2013-03-19 16:57:00,
2013-03-19 12:13:00,38.7,27.2,30.12,NNW,337,1.7,-999.0,63,-99.99,,,0.00,Acu-Link.com,2013-03-19 17:13:00,
2013-03-19 12:28:00,38.3,26.8,30.12,ESE,112,3.7,-999.0,63,-99.99,,,0.00,Acu-Link.com,2013-03-19 17:28:00,
2013-03-19 12:43:00,39.2,27.3,30.13,West,270,3.7,-999.0,62,-99.99,,,0.00,Acu-Link.com,2013-03-19 17:43:00,
2013-03-19 12:58:00,39.7,27.8,30.13,South,180,6.8,-999.0,62,-99.99,,,0.00,Acu-Link.com,2013-03-19 17:58:00,
2013-03-19 13:14:00,39.6,27.3,30.12,South,180,2.7,-999.0,61,-99.99,,,0.00,Acu-Link.com,2013-03-19 18:14:00,
2013-03-19 13:29:00,40.8,27.2,30.12,ESE,112,4.2,-999.0,58,-99.99,,,0.00,Acu-Link.com,2013-03-19 18:29:00,
2013-03-19 13:44:00,41.7,27.2,30.12,South,180,6.3,-999.0,56,-99.99,,,0.00,Acu-Link.com,2013-03-19 18:44:00,
2013-03-19 13:59:00,42.6,24.8,30.11,South,180,7.8,-999.0,49,-99.99,,,0.00,Acu-Link.com,2013-03-19 18:59:00,
2013-03-19 14:15:00,42.6,23.3,30.10,South,180,5.3,-999.0,46,-99.99,,,0.00,Acu-Link.com,2013-03-19 19:15:00,
2013-03-19 14:30:00,43.3,22.3,30.10,SSW,202,9.4,-999.0,43,-99.99,,,0.00,Acu-Link.com,2013-03-19 19:30:00,
2013-03-19 14:45:00,45.9,25.8,30.09,SSE,157,3.7,-999.0,45,-99.99,,,0.00,Acu-Link.com,2013-03-19 19:45:00,
2013-03-19 15:00:00,46.9,27.2,30.08,SSW,202,5.8,-999.0,46,-99.99,,,0.00,Acu-Link.com,2013-03-19 20:00:00,
2013-03-19 15:15:00,47.8,28.6,30.08,SW,225,8.3,-999.0,47,-99.99,,,0.00,Acu-Link.com,2013-03-19 20:15:00,
2013-03-19 15:31:00,49.5,30.6,30.07,NW,315,4.2,-999.0,48,-99.99,,,0.00,Acu-Link.com,2013-03-19 20:31:00,
2013-03-19 15:46:00,50.2,31.8,30.07,NNW,337,3.2,-999.0,49,-99.99,,,0.00,Acu-Link.com,2013-03-19 20:46:00,
2013-03-19 16:01:00,52.0,34.4,30.06,NE,45,4.7,-999.0,51,-99.99,,,0.00,Acu-Link.com,2013-03-19 21:01:00,
2013-03-19 16:16:00,50.9,36.7,30.06,SSW,202,4.2,-999.0,58,-99.99,,,0.00,Acu-Link.com,2013-03-19 21:16:00,
2013-03-19 16:32:00,48.9,37.7,30.05,SSW,202,5.3,-999.0,65,-99.99,,,0.00,Acu-Link.com,2013-03-19 21:32:00,
2013-03-19 16:47:00,47.7,38.4,30.05,SSW,202,7.8,-999.0,70,-99.99,,,0.00,Acu-Link.com,2013-03-19 21:47:00,
2013-03-19 17:02:00,44.2,40.9,30.08,WSW,247,6.8,-999.0,88,-99.99,,,0.00,Acu-Link.com,2013-03-19 22:02:00,
2013-03-19 17:17:00,44.2,43.7,30.07,North,0,3.2,-999.0,98,-99.99,,,0.02,Acu-Link.com,2013-03-19 22:17:00,
2013-03-19 17:32:00,45.0,44.5,30.07,West,270,2.7,-999.0,98,-99.99,,,0.02,Acu-Link.com,2013-03-19 22:32:00,
2013-03-19 17:48:00,44.6,44.1,30.07,SSW,202,1.7,-999.0,98,-99.99,,,0.02,Acu-Link.com,2013-03-19 22:48:00,
2013-03-19 18:03:00,44.6,44.1,30.07,NNW,337,1.1,-999.0,98,-99.99,,,0.02,Acu-Link.com,2013-03-19 23:03:00,
2013-03-19 18:18:00,46.0,45.5,30.08,NNW,337,0.0,-999.0,98,-99.99,,,0.02,Acu-Link.com,2013-03-19 23:18:00,
2013-03-19 18:33:00,45.3,44.8,30.07,SSW,202,3.2,-999.0,98,-99.99,,,0.02,Acu-Link.com,2013-03-19 23:33:00,
2013-03-19 18:48:00,44.2,43.7,30.07,West,270,3.2,-999.0,98,-99.99,,,0.02,Acu-Link.com,2013-03-19 23:48:00,
2013-03-19 19:04:00,43.3,42.8,30.08,SW,225,3.2,-999.0,98,-99.99,,,0.02,Acu-Link.com,2013-03-20 00:04:00,
2013-03-19 19:19:00,41.9,41.4,30.08,SW,225,2.7,-999.0,98,-99.99,,,0.02,Acu-Link.com,2013-03-20 00:19:00,
2013-03-19 19:34:00,40.6,40.1,30.09,South,180,1.7,-999.0,98,-99.99,,,0.02,Acu-Link.com,2013-03-20 00:34:00,
2013-03-19 19:49:00,39.7,39.2,30.10,West,270,2.2,-999.0,98,-99.99,,,0.02,Acu-Link.com,2013-03-20 00:49:00,
2013-03-19 20:04:00,40.1,39.6,30.11,NW,315,5.3,-999.0,98,-99.99,,,0.02,Acu-Link.com,2013-03-20 01:04:00,
2013-03-19 20:20:00,40.8,36.0,30.12,North,0,6.3,-999.0,83,-99.99,,,0.02,Acu-Link.com,2013-03-20 01:20:00,
2013-03-19 20:35:00,39.4,33.4,30.12,NW,315,5.8,-999.0,79,-99.99,,,0.02,Acu-Link.com,2013-03-20 01:35:00,
2013-03-19 20:50:00,39.2,31.6,30.14,NNW,337,5.3,-999.0,74,-99.99,,,0.03,Acu-Link.com,2013-03-20 01:50:00,
2013-03-19 21:06:00,38.1,29.5,30.14,NNW,337,4.7,-999.0,71,-99.99,,,0.03,Acu-Link.com,2013-03-20 02:06:00,
2013-03-19 21:36:00,36.9,28.0,30.16,NW,315,5.3,-999.0,70,-99.99,,,0.03,Acu-Link.com,2013-03-20 02:36:00,
2013-03-19 22:06:00,36.0,29.5,30.18,NNW,337,6.8,-999.0,77,-99.99,,,0.03,Acu-Link.com,2013-03-20 03:06:00,
2013-03-19 22:22:00,35.2,29.7,30.19,NNW,337,4.7,-999.0,80,-99.99,,,0.03,Acu-Link.com,2013-03-20 03:22:00,
2013-03-19 22:37:00,34.9,29.1,30.20,NNE,22,6.8,-999.0,79,-99.99,,,0.03,Acu-Link.com,2013-03-20 03:37:00,
2013-03-19 22:52:00,34.5,29.0,30.21,NNW,337,6.3,-999.0,80,-99.99,,,0.03,Acu-Link.com,2013-03-20 03:52:00,
2013-03-19 23:07:00,34.2,29.3,30.22,NNW,337,8.3,-999.0,82,-99.99,,,0.03,Acu-Link.com,2013-03-20 04:07:00,
2013-03-19 23:22:00,32.9,28.6,30.23,NNW,337,6.3,-999.0,84,-99.99,,,0.03,Acu-Link.com,2013-03-20 04:22:00,
2013-03-19 23:38:00,32.0,28.6,30.23,North,0,5.8,-999.0,87,-99.99,,,0.03,Acu-Link.com,2013-03-20 04:38:00,
2013-03-19 23:53:00,31.8,27.5,30.24,NW,315,14.0,-999.0,84,-99.99,,,0.03,Acu-Link.com,2013-03-20 04:53:00,